Time;durP1;ratioP1;P1;durP2;ratioP2;P2;SDS_P1;SDS_P2;PMS_P1;PMS_P2;Temp;Humidity;BMP_temperature;BMP_pressure;BME280_temperature;BME280_humidity;BME280_pressure;Samples;Min_cycle;Max_cycle;Signal;HPM_P1;HPM_P2
2024/03/21 00:02:20;;;;;;;5.00;3.07;;;;;;;;;;6272990;28;20104;-76
2024/03/21 00:05:21;;;;;;;3.90;2.90;;;;;;;;;;6273330;28;20059;-75
2024/03/21 00:08:21;;;;;;;5.20;3.30;;;;;;;;;;6281225;28;20116;-76
2024/03/21 00:11:21;;;;;;;3.73;3.10;;;;;;;;;;6274352;28;20029;-75
2024/03/21 00:14:22;;;;;;;4.10;3.00;;;;;;;;;;6273568;28;20037;-75
2024/03/21 00:17:22;;;;;;;4.03;3.35;;;;;;;;;;6272518;28;20037;-75
2024/03/21 00:20:22;;;;;;;4.03;2.83;;;;;;;;;;6255747;28;20125;-74
2024/03/21 00:23:23;;;;;;;5.53;3.20;;;;;;;;;;6273658;28;20017;-76
2024/03/21 00:26:23;;;;;;;4.10;3.27;;;;;;;;;;6273960;28;20024;-76
2024/03/21 00:29:24;;;;;;;4.80;2.90;;;;;;;;;;6255743;28;20028;-76
2024/03/21 00:32:24;;;;;;;3.95;3.13;;;;;;;;;;6272716;28;20013;-76
2024/03/21 00:35:25;;;;;;;4.47;2.70;;;;;;;;;;6273080;28;20538;-75
2024/03/21 00:38:26;;;;;;;4.05;2.97;;;;;;;;;;6273672;28;20469;-76
2024/03/21 00:41:26;;;;;;;4.22;2.97;;;;;;;;;;6256780;28;20041;-75
2024/03/21 00:44:27;;;;;;;3.47;3.00;;;;;;;;;;6273373;28;20417;-74
2024/03/21 00:47:27;;;;;;;4.93;3.37;;;;;;;;;;6272426;28;20032;-74
2024/03/21 00:50:27;;;;;;;4.40;2.73;;;;;;;;;;6272953;28;20066;-74
2024/03/21 00:53:27;;;;;;;4.20;2.87;;;;;;;;;;6272716;28;20043;-75
2024/03/21 00:56:28;;;;;;;3.67;2.80;;;;;;;;;;6272699;28;20051;-75
2024/03/21 00:59:28;;;;;;;3.63;2.83;;;;;;;;;;6272915;28;20582;-76
2024/03/21 01:02:28;;;;;;;4.13;2.73;;;;;;;;;;6272176;28;20100;-76
2024/03/21 01:05:29;;;;;;;3.77;2.63;;;;;;;;;;6272741;28;20064;-73
2024/03/21 01:08:29;;;;;;;3.77;2.77;;;;;;;;;;6272676;28;20473;-73
2024/03/21 01:11:29;;;;;;;4.43;3.00;;;;;;;;;;6273335;28;20013;-73
2024/03/21 01:14:30;;;;;;;3.70;2.87;;;;;;;;;;6235769;28;20029;-73
2024/03/21 01:17:31;;;;;;;3.78;2.67;;;;;;;;;;6271969;28;20074;-73
2024/03/21 01:20:31;;;;;;;3.83;2.90;;;;;;;;;;6253856;28;20537;-73
2024/03/21 01:23:32;;;;;;;3.55;2.80;;;;;;;;;;6247814;28;20734;-73
2024/03/21 01:26:32;;;;;;;3.40;2.63;;;;;;;;;;6248067;28;20041;-73
2024/03/21 01:29:33;;;;;;;4.17;2.80;;;;;;;;;;6247989;28;20029;-73
2024/03/21 01:32:33;;;;;;;3.43;2.67;;;;;;;;;;6274757;28;20019;-73
2024/03/21 01:35:34;;;;;;;4.57;2.80;;;;;;;;;;6296762;28;20384;-73
2024/03/21 01:38:34;;;;;;;3.37;2.87;;;;;;;;;;6296339;28;20012;-73
2024/03/21 01:41:34;;;;;;;5.40;2.40;;;;;;;;;;6272650;28;20029;-73
2024/03/21 01:44:34;;;;;;;2.67;2.33;;;;;;;;;;6272485;28;20052;-73
2024/03/21 01:47:35;;;;;;;4.77;2.93;;;;;;;;;;6271753;28;20017;-72
2024/03/21 01:50:35;;;;;;;3.90;2.50;;;;;;;;;;6272458;28;20032;-73
2024/03/21 01:53:36;;;;;;;3.15;2.42;;;;;;;;;;6273183;28;20013;-73
2024/03/21 01:56:37;;;;;;;4.03;2.93;;;;;;;;;;6277326;28;20436;-73
2024/03/21 01:59:37;;;;;;;4.15;2.88;;;;;;;;;;6277092;28;20120;-73
2024/03/21 02:02:38;;;;;;;3.97;2.60;;;;;;;;;;6275918;28;20055;-73
2024/03/21 02:05:38;;;;;;;3.30;2.47;;;;;;;;;;6278910;28;20020;-74
2024/03/21 02:08:38;;;;;;;3.80;2.47;;;;;;;;;;6277783;28;20059;-73
2024/03/21 02:11:38;;;;;;;4.57;2.70;;;;;;;;;;6276745;28;20028;-73
2024/03/21 02:14:39;;;;;;;2.97;2.63;;;;;;;;;;6276983;28;20044;-73
2024/03/21 02:17:39;;;;;;;5.37;2.63;;;;;;;;;;6276058;28;20017;-73
2024/03/21 02:20:40;;;;;;;3.90;2.63;;;;;;;;;;6276047;28;20540;-73
2024/03/21 02:23:40;;;;;;;3.50;2.67;;;;;;;;;;6278076;28;20025;-73
2024/03/21 02:26:41;;;;;;;4.38;2.28;;;;;;;;;;6276835;28;20028;-73
2024/03/21 02:29:41;;;;;;;5.07;2.50;;;;;;;;;;6276669;28;20539;-72
2024/03/21 02:32:41;;;;;;;3.87;2.67;;;;;;;;;;6275178;28;20487;-73
2024/03/21 02:35:41;;;;;;;3.10;2.60;;;;;;;;;;6275336;28;20017;-73
2024/03/21 02:38:42;;;;;;;4.83;2.37;;;;;;;;;;6275789;28;20036;-73
2024/03/21 02:41:42;;;;;;;3.80;2.40;;;;;;;;;;6259150;28;20028;-73
2024/03/21 02:44:42;;;;;;;3.23;2.47;;;;;;;;;;6258463;28;20025;-73
2024/03/21 02:47:42;;;;;;;3.03;2.40;;;;;;;;;;6275142;28;20021;-73
2024/03/21 02:50:43;;;;;;;2.80;2.37;;;;;;;;;;6274961;28;20116;-73
2024/03/21 02:53:43;;;;;;;4.13;2.77;;;;;;;;;;6274926;28;20021;-73
2024/03/21 02:56:43;;;;;;;3.40;2.13;;;;;;;;;;6282826;28;20020;-72
2024/03/21 02:59:44;;;;;;;2.90;2.60;;;;;;;;;;6291173;28;20484;-73
2024/03/21 03:02:45;;;;;;;2.50;2.30;;;;;;;;;;6275082;28;20509;-73
2024/03/21 03:05:45;;;;;;;2.95;2.40;;;;;;;;;;6273043;28;20487;-73
2024/03/21 03:08:45;;;;;;;3.40;2.63;;;;;;;;;;6274642;28;20049;-73
2024/03/21 03:11:46;;;;;;;3.03;2.40;;;;;;;;;;6275632;28;20052;-73
2024/03/21 03:14:46;;;;;;;3.57;2.40;;;;;;;;;;6275516;28;20491;-73
2024/03/21 03:17:46;;;;;;;4.33;2.60;;;;;;;;;;6274217;28;20135;-73
2024/03/21 03:20:46;;;;;;;2.83;2.50;;;;;;;;;;6274773;28;20029;-72
2024/03/21 03:23:46;;;;;;;4.17;2.47;;;;;;;;;;6275152;28;20108;-73
2024/03/21 03:26:47;;;;;;;4.27;2.63;;;;;;;;;;6275324;28;20151;-72
2024/03/21 03:29:47;;;;;;;3.63;2.73;;;;;;;;;;6275124;28;20067;-72
2024/03/21 03:32:47;;;;;;;3.20;2.33;;;;;;;;;;6283001;28;20056;-73
2024/03/21 03:35:49;;;;;;;3.83;2.50;;;;;;;;;;6272938;28;20452;-73
2024/03/21 03:38:49;;;;;;;3.15;2.42;;;;;;;;;;6274729;28;20078;-74
2024/03/21 03:41:49;;;;;;;3.67;2.57;;;;;;;;;;6275462;28;20407;-73
2024/03/21 03:44:49;;;;;;;3.93;2.63;;;;;;;;;;6275071;28;20017;-72
2024/03/21 03:47:50;;;;;;;3.93;2.43;;;;;;;;;;6274419;28;20051;-73
2024/03/21 03:50:50;;;;;;;3.60;2.43;;;;;;;;;;6274463;28;20043;-73
2024/03/21 03:53:50;;;;;;;2.97;2.17;;;;;;;;;;6273511;28;20054;-73
2024/03/21 03:56:51;;;;;;;3.07;2.40;;;;;;;;;;6274135;28;20519;-74
2024/03/21 03:59:51;;;;;;;2.67;2.30;;;;;;;;;;6252569;28;20051;-73
2024/03/21 04:02:52;;;;;;;3.13;2.43;;;;;;;;;;6272381;28;20067;-72
2024/03/21 04:05:56;;;;;;;3.20;2.38;;;;;;;;;;6285323;28;20032;-73
2024/03/21 04:08:56;;;;;;;2.63;2.03;;;;;;;;;;6255640;28;20021;-73
2024/03/21 04:11:57;;;;;;;3.53;2.40;;;;;;;;;;6256344;28;20477;-73
2024/03/21 04:14:57;;;;;;;2.93;2.17;;;;;;;;;;6256522;28;20033;-72
2024/03/21 04:17:57;;;;;;;2.93;2.27;;;;;;;;;;6272354;28;20037;-73
2024/03/21 04:20:57;;;;;;;4.03;2.53;;;;;;;;;;6253270;28;20033;-73
2024/03/21 04:23:57;;;;;;;2.80;2.23;;;;;;;;;;6298105;28;20043;-73
2024/03/21 04:26:58;;;;;;;2.23;2.03;;;;;;;;;;6298484;28;20021;-73
2024/03/21 04:29:59;;;;;;;3.30;2.10;;;;;;;;;;6276384;28;20025;-73
2024/03/21 04:32:59;;;;;;;3.60;2.50;;;;;;;;;;6272762;28;20016;-74
2024/03/21 04:36:01;;;;;;;2.67;2.03;;;;;;;;;;6272980;28;20036;-73
2024/03/21 04:39:01;;;;;;;;;;;;;;;;;;6282247;28;20027;-72
2024/03/21 04:42:01;;;;;;;2.57;1.83;;;;;;;;;;6297051;28;19904;-73
2024/03/21 04:45:01;;;;;;;2.33;2.00;;;;;;;;;;6273826;28;20021;-75
2024/03/21 04:48:02;;;;;;;2.93;2.17;;;;;;;;;;6272223;28;20457;-76
2024/03/21 04:51:02;;;;;;;2.93;2.10;;;;;;;;;;6273148;28;20082;-76
2024/03/21 04:54:02;;;;;;;3.17;2.47;;;;;;;;;;6272040;28;20048;-75
2024/03/21 04:57:03;;;;;;;3.40;2.47;;;;;;;;;;6273020;28;20013;-76
2024/03/21 05:00:04;;;;;;;3.30;2.37;;;;;;;;;;6273003;28;20492;-76
2024/03/21 05:03:04;;;;;;;;;;;;;;;;;;6272496;28;20116;-75
2024/03/21 05:06:05;;;;;;;2.65;1.95;;;;;;;;;;6272346;28;19905;-75
2024/03/21 05:09:06;;;;;;;2.50;2.20;;;;;;;;;;6272326;28;20372;-76
2024/03/21 05:12:07;;;;;;;3.72;2.20;;;;;;;;;;6273438;28;20013;-75
2024/03/21 05:15:07;;;;;;;2.63;2.17;;;;;;;;;;6272362;28;20480;-75
2024/03/21 05:18:07;;;;;;;3.50;2.33;;;;;;;;;;6272087;28;20094;-75
2024/03/21 05:21:08;;;;;;;3.03;2.50;;;;;;;;;;6272171;28;20021;-75
2024/03/21 05:24:09;;;;;;;3.22;2.63;;;;;;;;;;6272139;28;20416;-75
2024/03/21 05:27:11;;;;;;;4.90;2.97;;;;;;;;;;6272736;28;20025;-76
2024/03/21 05:30:11;;;;;;;5.72;3.20;;;;;;;;;;6242598;28;20108;-75
2024/03/21 05:33:11;;;;;;;4.43;2.97;;;;;;;;;;6276664;28;20024;-75
2024/03/21 05:36:12;;;;;;;4.43;2.97;;;;;;;;;;6276954;28;20029;-76
2024/03/21 05:39:12;;;;;;;3.43;2.73;;;;;;;;;;6276776;28;20059;-75
2024/03/21 05:42:14;;;;;;;3.00;2.50;;;;;;;;;;6277528;28;20036;-75
2024/03/21 05:45:15;;;;;;;4.05;2.50;;;;;;;;;;6277672;28;20024;-76
2024/03/21 05:48:15;;;;;;;3.80;2.60;;;;;;;;;;6277116;28;20559;-76
2024/03/21 05:51:15;;;;;;;3.30;2.57;;;;;;;;;;6277230;28;20025;-75
2024/03/21 05:54:15;;;;;;;3.33;2.47;;;;;;;;;;6276897;28;20409;-76
2024/03/21 05:57:16;;;;;;;4.20;2.53;;;;;;;;;;6277403;28;20104;-74
2024/03/21 06:00:17;;;;;;;3.43;2.40;;;;;;;;;;6277295;28;20110;-75
2024/03/21 06:03:17;;;;;;;4.07;2.97;;;;;;;;;;6279410;28;20059;-75
2024/03/21 06:06:18;;;;;;;3.33;2.43;;;;;;;;;;6301560;28;20379;-76
2024/03/21 06:09:21;;;;;;;2.83;2.03;;;;;;;;;;6301697;28;20036;-76
2024/03/21 06:12:21;;;;;;;4.10;2.55;;;;;;;;;;6301873;28;20480;-75
2024/03/21 06:15:22;;;;;;;3.87;2.33;;;;;;;;;;6284484;28;20028;-75
2024/03/21 06:18:23;;;;;;;3.90;2.40;;;;;;;;;;6276245;28;20031;-75
2024/03/21 06:21:23;;;;;;;3.28;2.35;;;;;;;;;;6276127;28;20068;-75
2024/03/21 06:24:23;;;;;;;3.17;2.53;;;;;;;;;;6276547;28;20025;-76
2024/03/21 06:27:24;;;;;;;3.53;2.60;;;;;;;;;;6276899;28;20028;-75
2024/03/21 06:30:25;;;;;;;3.47;2.53;;;;;;;;;;6276388;28;20025;-76
2024/03/21 06:33:25;;;;;;;2.95;2.65;;;;;;;;;;6275568;28;20033;-76
2024/03/21 06:36:25;;;;;;;2.60;2.37;;;;;;;;;;6275685;28;20366;-76
2024/03/21 06:39:26;;;;;;;2.73;2.33;;;;;;;;;;6276160;28;20469;-75
2024/03/21 06:42:26;;;;;;;4.23;3.00;;;;;;;;;;6276318;28;20556;-75
2024/03/21 06:45:26;;;;;;;3.30;2.57;;;;;;;;;;6275628;28;20575;-76
2024/03/21 06:48:27;;;;;;;3.97;2.70;;;;;;;;;;6274875;28;20386;-76
2024/03/21 06:51:27;;;;;;;4.70;2.53;;;;;;;;;;6275277;28;20021;-75
2024/03/21 06:54:27;;;;;;;4.93;2.73;;;;;;;;;;6276061;28;20756;-76
2024/03/21 06:57:28;;;;;;;3.50;2.60;;;;;;;;;;6275648;28;20480;-76
2024/03/21 07:00:28;;;;;;;4.37;2.70;;;;;;;;;;6276100;28;20075;-75
2024/03/21 07:03:28;;;;;;;3.33;2.87;;;;;;;;;;6275135;28;20037;-75
2024/03/21 07:06:28;;;;;;;2.97;2.60;;;;;;;;;;6275225;28;20048;-76
2024/03/21 07:09:29;;;;;;;4.60;2.77;;;;;;;;;;6275217;28;20064;-75
2024/03/21 07:12:29;;;;;;;3.77;2.77;;;;;;;;;;6276081;28;20063;-76
2024/03/21 07:15:29;;;;;;;3.67;2.70;;;;;;;;;;6249312;28;20029;-76
2024/03/21 07:18:30;;;;;;;3.30;2.27;;;;;;;;;;6250648;28;20021;-76
2024/03/21 07:21:30;;;;;;;4.63;3.08;;;;;;;;;;6249999;28;20033;-76
2024/03/21 07:24:32;;;;;;;3.43;2.60;;;;;;;;;;6249907;28;20041;-77
2024/03/21 07:27:32;;;;;;;4.75;3.03;;;;;;;;;;6250823;28;20017;-76
2024/03/21 07:30:32;;;;;;;5.73;2.83;;;;;;;;;;6273109;28;20048;-76
2024/03/21 07:33:32;;;;;;;3.53;2.60;;;;;;;;;;6274062;28;20476;-76
2024/03/21 07:36:33;;;;;;;4.27;2.67;;;;;;;;;;6274188;28;20496;-77
2024/03/21 07:39:34;;;;;;;3.03;2.63;;;;;;;;;;6256308;28;20032;-77
2024/03/21 07:42:34;;;;;;;3.50;2.65;;;;;;;;;;6256645;28;20025;-77
2024/03/21 07:45:34;;;;;;;2.80;2.57;;;;;;;;;;6275398;28;20021;-77
2024/03/21 07:48:34;;;;;;;2.83;2.53;;;;;;;;;;6273896;28;20469;-77
2024/03/21 07:51:35;;;;;;;4.00;2.63;;;;;;;;;;6273382;28;20525;-77
2024/03/21 07:54:35;;;;;;;3.03;2.33;;;;;;;;;;6274500;28;20108;-77
2024/03/21 07:57:36;;;;;;;3.00;2.47;;;;;;;;;;6274862;28;20483;-77
2024/03/21 08:00:37;;;;;;;3.28;2.67;;;;;;;;;;6274239;28;20566;-77
2024/03/21 08:03:37;;;;;;;5.30;2.63;;;;;;;;;;6274217;28;20056;-77
2024/03/21 08:06:37;;;;;;;3.37;2.27;;;;;;;;;;6273286;28;20025;-77
2024/03/21 08:09:37;;;;;;;2.47;2.03;;;;;;;;;;6274056;28;20098;-77
2024/03/21 08:12:38;;;;;;;4.90;2.67;;;;;;;;;;6274229;28;20017;-77
2024/03/21 08:15:38;;;;;;;2.97;2.27;;;;;;;;;;6274144;28;20025;-77
2024/03/21 08:18:38;;;;;;;3.03;2.43;;;;;;;;;;6273365;28;20028;-77
2024/03/21 08:21:38;;;;;;;2.63;2.37;;;;;;;;;;6255361;28;20020;-77
2024/03/21 08:24:39;;;;;;;4.00;2.63;;;;;;;;;;6273952;28;20020;-77
2024/03/21 08:27:39;;;;;;;3.53;2.50;;;;;;;;;;6273889;28;20020;-77
2024/03/21 08:30:43;;;;;;;4.07;3.10;;;;;;;;;;6274166;28;20040;-77
2024/03/21 08:33:43;;;;;;;4.78;3.08;;;;;;;;;;6272795;28;20512;-77
2024/03/21 08:36:44;;;;;;;3.03;2.77;;;;;;;;;;6272922;28;20032;-77
2024/03/21 08:39:44;;;;;;;4.17;2.93;;;;;;;;;;6273215;28;20017;-77
2024/03/21 08:42:45;;;;;;;3.20;2.63;;;;;;;;;;6255611;28;20020;-77
2024/03/21 08:45:45;;;;;;;4.80;2.60;;;;;;;;;;6272310;28;20171;-77
2024/03/21 08:48:46;;;;;;;3.08;2.78;;;;;;;;;;6272953;28;20036;-77
2024/03/21 08:51:46;;;;;;;3.13;2.83;;;;;;;;;;6272436;28;20032;-77
2024/03/21 08:54:46;;;;;;;4.67;2.80;;;;;;;;;;6273577;28;20480;-77
2024/03/21 08:57:46;;;;;;;2.93;2.63;;;;;;;;;;6273111;28;20056;-77
2024/03/21 09:00:47;;;;;;;4.37;2.80;;;;;;;;;;6273600;28;20552;-77
2024/03/21 09:03:47;;;;;;;3.87;2.73;;;;;;;;;;6272125;28;20616;-77
2024/03/21 09:06:47;;;;;;;2.63;2.43;;;;;;;;;;6271744;28;20031;-77
2024/03/21 09:09:48;;;;;;;2.57;2.17;;;;;;;;;;6272882;28;20025;-77
2024/03/21 09:12:48;;;;;;;3.27;2.30;;;;;;;;;;6273335;28;20025;-77
2024/03/21 09:15:48;;;;;;;4.70;2.93;;;;;;;;;;6272654;28;20032;-77
2024/03/21 09:18:48;;;;;;;3.23;2.90;;;;;;;;;;6272123;28;20424;-77
2024/03/21 09:21:49;;;;;;;3.47;2.57;;;;;;;;;;6271820;28;20366;-77
2024/03/21 09:24:50;;;;;;;5.20;2.40;;;;;;;;;;6272684;28;20465;-77
2024/03/21 09:27:50;;;;;;;4.65;3.05;;;;;;;;;;6273530;28;20120;-76
2024/03/21 09:30:51;;;;;;;4.17;3.07;;;;;;;;;;6272767;28;20390;-77
2024/03/21 09:33:51;;;;;;;4.63;2.72;;;;;;;;;;6271410;28;20465;-77
2024/03/21 09:36:52;;;;;;;3.75;3.03;;;;;;;;;;6270775;28;20037;-77
2024/03/21 09:39:52;;;;;;;3.67;2.70;;;;;;;;;;6272449;28;20037;-77
2024/03/21 09:42:54;;;;;;;4.83;3.20;;;;;;;;;;6272637;28;20029;-77
2024/03/21 09:45:54;;;;;;;3.33;2.97;;;;;;;;;;6273261;28;20419;-77
2024/03/21 09:48:56;;;;;;;3.72;3.13;;;;;;;;;;6271038;28;20045;-77
2024/03/21 09:51:56;;;;;;;4.53;3.23;;;;;;;;;;6271130;28;20021;-77
2024/03/21 09:54:56;;;;;;;4.17;2.50;;;;;;;;;;6272506;28;20053;-77
2024/03/21 09:57:57;;;;;;;2.90;2.57;;;;;;;;;;6272158;28;20021;-77
2024/03/21 10:00:57;;;;;;;3.63;2.70;;;;;;;;;;6273169;28;20079;-77
2024/03/21 10:03:58;;;;;;;3.10;2.50;;;;;;;;;;6270647;28;20108;-77
2024/03/21 10:06:58;;;;;;;2.92;2.58;;;;;;;;;;6271058;28;20549;-77
2024/03/21 10:09:58;;;;;;;3.20;2.70;;;;;;;;;;6272530;28;20025;-78
2024/03/21 10:12:59;;;;;;;4.97;3.60;;;;;;;;;;6272466;28;20043;-77
2024/03/21 10:15:59;;;;;;;4.45;3.55;;;;;;;;;;6276254;28;20167;-77
2024/03/21 10:19:00;;;;;;;4.93;3.77;;;;;;;;;;6272576;28;20052;-77
2024/03/21 10:22:00;;;;;;;5.28;3.65;;;;;;;;;;6271963;28;20260;-77
2024/03/21 10:25:03;;;;;;;7.47;4.20;;;;;;;;;;6276297;28;20025;-78
2024/03/21 10:28:04;;;;;;;6.05;3.97;;;;;;;;;;6273687;28;20033;-77
2024/03/21 10:31:08;;;;;;;4.43;3.95;;;;;;;;;;6276436;28;20021;-77
2024/03/21 10:34:10;;;;;;;5.15;3.72;;;;;;;;;;6271102;28;20075;-77
2024/03/21 10:37:10;;;;;;;5.60;3.83;;;;;;;;;;6275537;28;20112;-78
2024/03/21 10:40:11;;;;;;;5.30;4.40;;;;;;;;;;6276737;28;20039;-77
2024/03/21 10:43:11;;;;;;;;;;;;;;;;;;6276443;28;20405;-77
2024/03/21 10:46:12;;;;;;;4.88;3.08;;;;;;;;;;6258472;28;19905;-77
2024/03/21 10:49:14;;;;;;;6.32;3.97;;;;;;;;;;6274784;28;20021;-77
2024/03/21 10:52:17;;;;;;;4.45;3.63;;;;;;;;;;6275801;28;20396;-78
2024/03/21 10:55:18;;;;;;;5.45;3.88;;;;;;;;;;6276092;28;20025;-77
2024/03/21 10:58:19;;;;;;;4.10;3.50;;;;;;;;;;6275623;28;20118;-77
2024/03/21 11:01:19;;;;;;;4.90;3.47;;;;;;;;;;6258390;28;20067;-77
2024/03/21 11:04:19;;;;;;;4.93;3.67;;;;;;;;;;6274689;28;20157;-77
2024/03/21 11:07:20;;;;;;;5.13;3.53;;;;;;;;;;6274771;28;20100;-78
2024/03/21 11:10:21;;;;;;;5.43;3.90;;;;;;;;;;6276699;28;20107;-76
2024/03/21 11:13:21;;;;;;;;;;;;;;;;;;6258034;28;20025;-77
2024/03/21 11:16:21;;;;;;;4.20;3.30;;;;;;;;;;6275420;28;19912;-77
2024/03/21 11:19:22;;;;;;;5.10;3.73;;;;;;;;;;6273939;28;20033;-77
2024/03/21 11:22:22;;;;;;;3.83;3.47;;;;;;;;;;6256448;28;20021;-77
2024/03/21 11:25:22;;;;;;;;;;;;;;;;;;6274479;28;20104;-77
2024/03/21 11:28:23;;;;;;;3.85;2.92;;;;;;;;;;6274957;28;19904;-77
2024/03/21 11:31:24;;;;;;;5.43;3.87;;;;;;;;;;6274931;28;20474;-78
2024/03/21 11:34:25;;;;;;;4.50;3.45;;;;;;;;;;6273469;28;20075;-76
2024/03/21 11:37:25;;;;;;;6.20;3.65;;;;;;;;;;6273983;28;20425;-76
2024/03/21 11:40:25;;;;;;;;;;;;;;;;;;6275881;28;20024;-77
2024/03/21 11:43:27;;;;;;;4.38;3.17;;;;;;;;;;6275560;28;19905;-77
2024/03/21 11:46:27;;;;;;;6.95;3.17;;;;;;;;;;6275106;28;20017;-76
2024/03/21 11:49:27;;;;;;;3.97;3.43;;;;;;;;;;6273324;28;20419;-76
2024/03/21 11:52:28;;;;;;;5.30;3.17;;;;;;;;;;6273780;28;20488;-75
2024/03/21 11:55:28;;;;;;;;;;;;;;;;;;6274558;28;20477;-75
2024/03/21 11:58:28;;;;;;;3.70;2.80;;;;;;;;;;6274227;28;20045;-75
2024/03/21 12:01:29;;;;;;;;;;;;;;;;;;6275624;28;20415;-75
2024/03/21 12:04:29;;;;;;;5.00;3.08;;;;;;;;;;6273001;28;19999;-75
2024/03/21 12:07:30;;;;;;;5.57;3.75;;;;;;;;;;6273251;28;20457;-74
2024/03/21 12:10:30;;;;;;;5.07;3.43;;;;;;;;;;6274496;28;20024;-75
2024/03/21 12:13:30;;;;;;;;;;;;;;;;;;6274179;28;20755;-76
2024/03/21 12:16:31;;;;;;;5.60;3.28;;;;;;;;;;6274189;28;19919;-75
2024/03/21 12:19:31;;;;;;;4.78;3.58;;;;;;;;;;6272727;28;20028;-75
2024/03/21 12:22:32;;;;;;;4.13;3.28;;;;;;;;;;6254933;28;20021;-75
2024/03/21 12:25:32;;;;;;;5.00;3.63;;;;;;;;;;6273804;28;20025;-75
2024/03/21 12:28:32;;;;;;;;;;;;;;;;;;6274092;28;20466;-75
2024/03/21 12:31:33;;;;;;;4.00;3.00;;;;;;;;;;6273875;28;20081;-76
2024/03/21 12:34:33;;;;;;;;;;;;;;;;;;6273063;28;20171;-75
2024/03/21 12:37:34;;;;;;;4.63;3.15;;;;;;;;;;6272263;28;19905;-75
2024/03/21 12:40:35;;;;;;;4.28;3.58;;;;;;;;;;6273883;28;20028;-75
2024/03/21 12:43:35;;;;;;;;;;;;;;;;;;6256531;28;20053;-75
2024/03/21 12:46:36;;;;;;;3.97;3.20;;;;;;;;;;6273472;28;19919;-76
2024/03/21 12:49:36;;;;;;;;;;;;;;;;;;6272416;28;20031;-77
2024/03/21 12:52:36;;;;;;;4.25;3.03;;;;;;;;;;6286117;28;19904;-75
2024/03/21 12:55:36;;;;;;;;;;;;;;;;;;6285689;28;20457;-75
2024/03/21 12:58:37;;;;;;;3.65;2.88;;;;;;;;;;6273046;28;19916;-75
2024/03/21 13:01:37;;;;;;;;;;;;;;;;;;6273823;28;20066;-76
2024/03/21 13:04:37;;;;;;;3.53;3.03;;;;;;;;;;6272146;28;19912;-76
2024/03/21 13:07:37;;;;;;;;;;;;;;;;;;6273130;28;20406;-75
2024/03/21 13:10:38;;;;;;;3.63;2.70;;;;;;;;;;6269448;28;19905;-75
2024/03/21 13:13:38;;;;;;;;;;;;;;;;;;6273294;28;20549;-75
2024/03/21 13:16:38;;;;;;;3.60;2.77;;;;;;;;;;6272617;28;19935;-76
2024/03/21 13:19:38;;;;;;;;;;;;;;;;;;6268338;28;20017;-75
2024/03/21 13:22:40;;;;;;;3.80;2.70;;;;;;;;;;6272221;28;19904;-75
2024/03/21 13:25:40;;;;;;;4.78;3.15;;;;;;;;;;6273100;28;20028;-75
2024/03/21 13:28:40;;;;;;;;;;;;;;;;;;6272882;28;20029;-75
2024/03/21 13:31:40;;;;;;;5.38;3.08;;;;;;;;;;6272533;28;20014;-76
2024/03/21 13:34:44;;;;;;;;;;;;;;;;;;6271010;28;20116;-76
2024/03/21 13:37:49;;;;;;;4.45;3.10;;;;;;;;;;6253869;28;19915;-75
2024/03/21 13:40:49;;;;;;;5.93;3.63;;;;;;;;;;6273061;28;20036;-75
2024/03/21 13:43:49;;;;;;;;;;;;;;;;;;6256206;28;20457;-75
2024/03/21 13:46:49;;;;;;;4.95;3.42;;;;;;;;;;6272472;28;19905;-75
2024/03/21 13:49:49;;;;;;;;;;;;;;;;;;6273480;28;20450;-75
2024/03/21 13:52:50;;;;;;;5.15;3.47;;;;;;;;;;6276932;28;19931;-75
2024/03/21 13:55:50;;;;;;;;;;;;;;;;;;6277749;28;20488;-75
2024/03/21 13:58:50;;;;;;;4.75;3.38;;;;;;;;;;6277023;28;19917;-77
2024/03/21 14:01:50;;;;;;;;;;;;;;;;;;6278249;28;20132;-75
2024/03/21 14:04:51;;;;;;;4.60;3.35;;;;;;;;;;6275383;28;19912;-75
2024/03/21 14:07:51;;;;;;;;;;;;;;;;;;6277304;28;20028;-75
2024/03/21 14:10:51;;;;;;;4.50;3.42;;;;;;;;;;6277152;28;19948;-76
2024/03/21 14:13:52;;;;;;;;;;;;;;;;;;6275813;28;20479;-77
2024/03/21 14:16:52;;;;;;;4.57;3.00;;;;;;;;;;6282248;28;19912;-75
2024/03/21 14:19:52;;;;;;;;;;;;;;;;;;6275825;28;20260;-75
2024/03/21 14:22:52;;;;;;;5.35;3.50;;;;;;;;;;6276202;28;19908;-75
2024/03/21 14:25:52;;;;;;;;;;;;;;;;;;6277353;28;20036;-75
2024/03/21 14:28:53;;;;;;;5.40;3.47;;;;;;;;;;6276329;28;20021;-77
2024/03/21 14:31:53;;;;;;;;;;;;;;;;;;6276755;28;20075;-77
2024/03/21 14:34:54;;;;;;;6.28;3.25;;;;;;;;;;6275758;28;19917;-75
2024/03/21 14:37:54;;;;;;;;;;;;;;;;;;6276244;28;20028;-75
2024/03/21 14:40:54;;;;;;;4.97;3.47;;;;;;;;;;6276285;28;20038;-74
2024/03/21 14:43:54;;;;;;;;;;;;;;;;;;6276489;28;20017;-76
2024/03/21 14:46:54;;;;;;;7.50;3.55;;;;;;;;;;6275457;28;19912;-77
2024/03/21 14:49:55;;;;;;;7.30;4.20;;;;;;;;;;6275264;28;20021;-75
2024/03/21 14:52:57;;;;;;;5.80;3.83;;;;;;;;;;6300208;28;20715;-75
2024/03/21 14:55:57;;;;;;;6.70;4.32;;;;;;;;;;6285067;28;20103;-76
2024/03/21 14:58:57;;;;;;;5.50;4.00;;;;;;;;;;6275719;28;20044;-75
2024/03/21 15:01:58;;;;;;;6.70;4.27;;;;;;;;;;6274705;28;20252;-76
2024/03/21 15:04:58;;;;;;;;;;;;;;;;;;6257860;28;20074;-75
2024/03/21 15:07:58;;;;;;;4.50;3.22;;;;;;;;;;6275861;28;19911;-75
2024/03/21 15:10:58;;;;;;;3.53;2.63;;;;;;;;;;6276038;28;20021;-75
2024/03/21 15:14:02;;;;;;;2.07;1.83;;;;;;;;;;6275464;28;20480;-75
2024/03/21 15:17:03;;;;;;;2.45;1.65;;;;;;;;;;6274405;28;20103;-75
2024/03/21 15:20:03;;;;;;;2.58;2.30;;;;;;;;;;6274753;28;20405;-75
2024/03/21 15:23:03;;;;;;;;;;;;;;;;;;6275555;28;20044;-75
2024/03/21 15:26:03;;;;;;;1.60;1.17;;;;;;;;;;6275870;28;20003;-75
2024/03/21 15:29:04;;;;;;;1.40;0.93;;;;;;;;;;6275376;28;20549;-75
2024/03/21 15:32:04;;;;;;;;;;;;;;;;;;6274610;28;20071;-75
2024/03/21 15:35:04;;;;;;;0.90;0.80;;;;;;;;;;6256518;28;19924;-75
2024/03/21 15:38:04;;;;;;;1.77;0.90;;;;;;;;;;6274393;28;20543;-75
2024/03/21 15:41:05;;;;;;;1.10;0.90;;;;;;;;;;6275568;28;20251;-75
2024/03/21 15:44:06;;;;;;;1.00;0.90;;;;;;;;;;6274873;28;20025;-75
2024/03/21 15:47:07;;;;;;;1.63;0.82;;;;;;;;;;6273731;28;20033;-75
2024/03/21 15:50:07;;;;;;;0.93;0.60;;;;;;;;;;6274294;28;20480;-75
2024/03/21 15:53:07;;;;;;;1.00;0.90;;;;;;;;;;6273803;28;20496;-75
2024/03/21 15:56:08;;;;;;;1.65;0.90;;;;;;;;;;6274445;28;20037;-75
2024/03/21 15:59:08;;;;;;;2.07;1.00;;;;;;;;;;6284080;28;20041;-75
2024/03/21 16:02:08;;;;;;;1.10;0.80;;;;;;;;;;6298322;28;20718;-75
2024/03/21 16:05:08;;;;;;;0.95;0.85;;;;;;;;;;6279955;28;20021;-75
2024/03/21 16:08:09;;;;;;;1.37;1.10;;;;;;;;;;6273670;28;20021;-75
2024/03/21 16:11:09;;;;;;;;;;;;;;;;;;6274635;28;20473;-75
2024/03/21 16:14:09;;;;;;;1.02;1.00;;;;;;;;;;6273425;28;19909;-75
2024/03/21 16:17:09;;;;;;;1.50;1.23;;;;;;;;;;6273659;28;20385;-75
2024/03/21 16:20:11;;;;;;;1.63;1.13;;;;;;;;;;6244579;28;20034;-75
2024/03/21 16:23:11;;;;;;;1.40;1.15;;;;;;;;;;6231022;28;20378;-75
2024/03/21 16:26:12;;;;;;;2.03;1.30;;;;;;;;;;6249132;28;20017;-77
2024/03/21 16:29:12;;;;;;;;;;;;;;;;;;6248414;28;20256;-77
2024/03/21 16:32:12;;;;;;;1.90;1.40;;;;;;;;;;6251972;28;20343;-77
2024/03/21 16:35:13;;;;;;;3.13;2.07;;;;;;;;;;6273080;28;20025;-77
2024/03/21 16:38:13;;;;;;;2.70;2.03;;;;;;;;;;6257391;28;20568;-77
2024/03/21 16:41:15;;;;;;;2.63;1.90;;;;;;;;;;6273499;28;20056;-77
2024/03/21 16:44:15;;;;;;;2.38;1.60;;;;;;;;;;6273602;28;20416;-77
2024/03/21 16:47:15;;;;;;;1.27;1.17;;;;;;;;;;6272277;28;20026;-77
2024/03/21 16:50:17;;;;;;;1.60;1.40;;;;;;;;;;6273383;28;20377;-77
2024/03/21 16:53:17;;;;;;;1.50;1.40;;;;;;;;;;6272738;28;20025;-77
2024/03/21 16:56:18;;;;;;;1.90;1.67;;;;;;;;;;6273133;28;20056;-77
2024/03/21 16:59:23;;;;;;;2.95;1.65;;;;;;;;;;6272993;28;20040;-77
2024/03/21 17:02:23;;;;;;;2.05;1.67;;;;;;;;;;6272251;28;20390;-77
2024/03/21 17:05:24;;;;;;;3.30;1.83;;;;;;;;;;6272383;28;20055;-77
2024/03/21 17:08:24;;;;;;;3.65;2.72;;;;;;;;;;6288469;28;20036;-77
2024/03/21 17:11:25;;;;;;;3.75;2.70;;;;;;;;;;6273259;28;20029;-77
2024/03/21 17:14:25;;;;;;;2.30;2.10;;;;;;;;;;6271194;28;20021;-76
2024/03/21 17:17:26;;;;;;;2.83;2.20;;;;;;;;;;6272172;28;20260;-77
2024/03/21 17:20:26;;;;;;;;;;;;;;;;;;6272899;28;20453;-77
2024/03/21 17:23:27;;;;;;;2.53;1.70;;;;;;;;;;6276121;28;19940;-76
2024/03/21 17:26:27;;;;;;;2.70;2.08;;;;;;;;;;6297711;28;20461;-77
2024/03/21 17:29:28;;;;;;;2.50;1.97;;;;;;;;;;6295079;28;20028;-76
2024/03/21 17:32:29;;;;;;;3.15;1.73;;;;;;;;;;6268671;28;20025;-77
2024/03/21 17:35:30;;;;;;;2.95;1.95;;;;;;;;;;6254439;28;20602;-77
2024/03/21 17:38:30;;;;;;;1.90;1.52;;;;;;;;;;6272030;28;20504;-77
2024/03/21 17:41:30;;;;;;;2.10;1.87;;;;;;;;;;6273341;28;20021;-77
2024/03/21 17:44:31;;;;;;;1.98;1.73;;;;;;;;;;6272756;28;20027;-77
2024/03/21 17:47:31;;;;;;;2.03;1.83;;;;;;;;;;6271721;28;20021;-77
2024/03/21 17:50:31;;;;;;;1.63;1.48;;;;;;;;;;6271846;28;20024;-77
2024/03/21 17:53:32;;;;;;;2.57;1.80;;;;;;;;;;6272028;28;20053;-77
2024/03/21 17:56:34;;;;;;;1.37;1.27;;;;;;;;;;6272449;28;20040;-77
2024/03/21 17:59:35;;;;;;;2.17;1.30;;;;;;;;;;6272568;28;20056;-77
2024/03/21 18:02:35;;;;;;;1.33;1.03;;;;;;;;;;6271231;28;20029;-77
2024/03/21 18:05:37;;;;;;;1.50;1.00;;;;;;;;;;6271722;28;20036;-77
2024/03/21 18:08:37;;;;;;;1.30;1.10;;;;;;;;;;6271796;28;20025;-77
2024/03/21 18:11:38;;;;;;;1.20;1.10;;;;;;;;;;6272464;28;20028;-77
2024/03/21 18:14:38;;;;;;;1.37;1.13;;;;;;;;;;6277722;28;20033;-78